Historyczne dane pomiarowe

Dodano dane terminowe – wersja testowa.

Dane z okresu 1951-2019

Wersja bazy: 1.34 [2019-03-16, lista zmian], aktualizacja planowana na 2019-04-15

Dane meteo z obszaru Polski uzyskane na podstawie danych udostępnionych przez Instytut Meteorologii i Gospodarki Wodnej – Państwowy Instytut Badawczy.

 

Wybierz Datę:    

       

TemperaturaWilgotnośćWiatrCiśnienieOpadyŚniegCzas trwania zjawisk
 Stacja t tx tn tng RH VA  wxwx mslp ppp RRR   cm mm wxwxwxwxwxwxwx
1983-04-17 9.5 15.9 2.0- 67.0- 1.3 1.3---- 0.0------------
1983-04-18 9.3 14.0 4.2- 52.5- 5.0 5.0---- 0.0------------
1983-04-19 10.0 17.4 3.0- 55.0- 2.3 4.0---- 0.0------------
1983-04-20 10.5 14.8 7.4- 70.3- 4.0 3.0---- 0.0------------
1983-04-21 12.1 22.3 0.9- 72.5- 1.0 1.7---- 0.0------------
1983-04-22 18.1 24.8 12.0- 65.0- 4.3 2.0---- 0.0------------
1983-04-23 12.5 18.2 10.4- 84.8- 6.0 0.3---- 0.0------------
1983-04-24 15.4 21.4 11.0- 78.0- 4.3 0.3---- 0.3------------
1983-04-25 13.0 18.0 10.3- 88.3- 4.7 0.7---- 0.1------------
1983-04-26 12.4 19.7 3.5- 75.3- 3.3 0.3---- 0.0------------
1983-04-27 15.6 22.8 8.9- 75.0- 3.7 2.3---- 0.0------------
1983-04-28 14.8 21.0 7.2- 66.3- 2.0 1.3---- 0.0------------
1983-04-29 15.0 23.9 6.0- 69.0- 3.7 1.7---- 1.3------------
1983-04-30 12.8 18.3 7.3- 72.3- 3.0 1.3---- 0.0------------
1983-05-01 13.8 20.8 5.0- 60.8- 1.7 2.7---- 0.0------------
1983-05-02 12.0 17.6 9.6- 66.8- 6.0 2.3---- 0.0------------
1983-05-03 10.8 17.8 5.4- 72.5- 5.7 1.3---- 0.0------------
1983-05-04 10.4 15.6 5.6- 74.5- 4.3 1.3---- 1.8------------
1983-05-05 8.3 12.1 5.9- 89.8- 5.7 0.3---- 18.7------------
1983-05-06 8.9 13.3 5.3- 80.8- 4.7 0.3---- 0.0------------
1983-05-07 11.6 17.9 6.3- 76.0- 4.7 1.0---- 0.0------------
1983-05-08 12.5 18.3 5.2- 61.8- 3.0 3.3---- 0.0------------
1983-05-09 11.8 15.4 8.5- 72.5- 5.3 2.0---- 1.4------------
1983-05-10 13.3 18.2 9.5- 81.5- 4.0 1.0---- 0.0------------
1983-05-11 14.7 21.4 8.0- 77.0- 5.0 2.3---- 0.0------------
1983-05-12 14.6 20.9 7.2- 70.8- 4.0 2.0---- 0.0------------
1983-05-13 18.3 24.3 10.8- 64.3- 2.0 0.7---- 3.1------------
1983-05-14 16.2 21.3 11.4- 82.0- 3.3 0.3---- 0.0------------
1983-05-15 19.9 27.5 11.4- 75.5- 3.7 3.0---- 0.0------------
1983-05-16 24.1 33.3 15.0- 64.3- 1.0 2.7---- 0.0------------
154.5 ms

 

Źródłem pochodzenia danych jest Instytut Meteorologii i Gospodarki Wodnej – Państwowy Instytut Badawczy. Dane Instytutu Meteorologii i Gospodarki Wodnej – Państwowego Instytutu Badawczego zostały przetworzone.

Dane źródłowe można odnaleźć na stronie https://dane.imgw.pl